createdAt,value
2019-05-11T00:06:38.549Z,108.52
2019-05-11T00:12:13.967Z,108.15
2019-05-11T00:14:47.172Z,96.45
2019-05-11T00:17:20.708Z,111.30
2019-05-11T00:19:53.485Z,105.63
2019-05-11T00:22:25.991Z,109.52
2019-05-11T00:24:59.968Z,108.67
2019-05-11T00:27:32.931Z,105.47
2019-05-11T00:30:06.627Z,91.57
2019-05-11T00:32:40.278Z,93.80
2019-05-11T00:35:13.030Z,98.65
2019-05-11T00:37:48.021Z,97.88
2019-05-11T00:40:20.863Z,94.75
2019-05-11T00:42:53.226Z,100.12
2019-05-11T00:45:26.960Z,96.55
2019-05-11T00:47:59.894Z,103.35
2019-05-11T00:50:39.458Z,101.55
2019-05-11T00:53:06.454Z,104.75
2019-05-11T00:55:39.417Z,98.12
2019-05-11T00:58:12.735Z,103.83
2019-05-11T01:00:45.674Z,106.90
2019-05-11T01:03:18.034Z,102.75
2019-05-11T01:05:51.121Z,145.10
2019-05-11T01:08:23.459Z,143.47
2019-05-11T01:10:56.025Z,115.72
2019-05-11T01:13:28.716Z,107.43
2019-05-11T01:16:02.093Z,110.03
2019-05-11T01:21:06.391Z,96.15
2019-05-11T01:23:38.734Z,115.10
2019-05-11T01:26:11.950Z,249.92
2019-05-11T01:28:44.555Z,121.97
2019-05-11T01:31:17.591Z,118.90
2019-05-11T01:33:50.792Z,123.35
2019-05-11T01:36:23.961Z,118.72
2019-05-11T01:41:28.433Z,109.50
2019-05-11T01:44:03.135Z,86.28
2019-05-11T01:46:39.841Z,92.57
2019-05-11T01:49:13.118Z,84.07
2019-05-11T01:51:46.895Z,85.87
2019-05-11T01:54:19.580Z,69.65
2019-05-11T01:59:27.617Z,95.32
2019-05-11T02:02:00.454Z,116.90
2019-05-11T02:04:34.728Z,110.05
2019-05-11T02:07:10.168Z,91.55
2019-05-11T02:09:43.480Z,108.47
2019-05-11T02:14:49.761Z,99.67
2019-05-11T02:17:23.149Z,65.05
2019-05-11T02:22:30.378Z,99.72
2019-05-11T02:25:04.294Z,99.28
2019-05-11T02:27:37.168Z,107.63
2019-05-11T02:32:43.973Z,104.25
2019-05-11T02:35:16.647Z,49.45
2019-05-11T02:37:49.391Z,91.25
2019-05-11T02:40:24.431Z,80.25
2019-05-11T02:42:56.806Z,108.83
2019-05-11T02:45:45.911Z,90.07
2019-05-11T02:48:18.799Z,92.25
2019-05-11T02:50:52.637Z,89.32
2019-05-11T02:53:25.789Z,98.37
2019-05-11T02:56:00.024Z,108.55
2019-05-11T02:58:33.005Z,113.15
2019-05-11T03:01:06.397Z,120.08
2019-05-11T03:03:39.042Z,110.95
2019-05-11T03:06:12.314Z,115.05
2019-05-11T03:08:45.056Z,102.55
2019-05-11T03:11:18.052Z,68.50
2019-05-11T03:13:54.757Z,115.47
2019-05-11T03:16:27.470Z,120.90
2019-05-11T03:19:00.667Z,88.80
2019-05-11T03:21:34.300Z,107.45
2019-05-11T03:24:07.159Z,102.42
2019-05-11T03:26:40.567Z,110.75
2019-05-11T03:29:22.639Z,107.90
2019-05-11T03:31:57.223Z,115.03
2019-05-11T03:37:01.215Z,104.65
2019-05-11T03:42:14.712Z,62.53
2019-05-11T03:44:41.391Z,110.57
2019-05-11T03:47:14.924Z,99.15
2019-05-11T03:49:47.926Z,107.03
2019-05-11T03:52:23.774Z,102.30
2019-05-11T03:54:56.763Z,92.25
2019-05-11T04:00:01.914Z,100.80
2019-05-11T04:02:36.117Z,88.65
2019-05-11T04:05:08.626Z,85.97
2019-05-11T04:07:41.369Z,85.15
2019-05-11T04:10:14.225Z,85.05
2019-05-11T04:12:47.099Z,112.22
2019-05-11T04:15:23.302Z,96.50
2019-05-11T04:17:56.377Z,110.68
2019-05-11T04:20:28.904Z,113.62
2019-05-11T04:23:01.771Z,91.97
2019-05-11T04:25:34.549Z,114.92
2019-05-11T04:28:09.266Z,109.17
2019-05-11T04:30:41.968Z,116.57
2019-05-11T04:33:14.574Z,101.10
2019-05-11T04:35:47.094Z,113.40
2019-05-11T04:38:19.459Z,101.65
2019-05-11T04:40:52.923Z,95.35
2019-05-11T04:43:25.771Z,104.03
2019-05-11T04:46:04.004Z,88.80
2019-05-11T04:48:37.570Z,103.22
2019-05-11T04:51:11.005Z,102.32
2019-05-11T04:53:43.532Z,103.70
2019-05-11T04:56:16.736Z,104.12
2019-05-11T04:58:49.905Z,112.05
2019-05-11T05:01:22.383Z,107.72
2019-05-11T05:03:57.759Z,111.10
2019-05-11T05:06:29.686Z,115.40
2019-05-11T05:09:03.688Z,142.53
2019-05-11T05:11:38.494Z,106.65
2019-05-11T05:14:11.261Z,113.80
2019-05-11T05:19:15.859Z,98.42
2019-05-11T05:21:48.489Z,109.80
2019-05-11T05:24:21.105Z,127.13
2019-05-11T05:26:55.510Z,116.25
2019-05-11T05:29:28.240Z,122.17
2019-05-11T05:32:02.157Z,119.90
2019-05-11T05:34:34.764Z,121.90
2019-05-11T05:37:07.768Z,122.80
2019-05-11T05:39:40.930Z,112.17
2019-05-11T05:42:15.404Z,123.35
2019-05-11T05:44:47.886Z,118.60
2019-05-11T05:47:20.509Z,126.33
2019-05-11T05:49:53.338Z,121.85
2019-05-11T05:52:25.957Z,120.30
2019-05-11T05:54:58.544Z,120.90
2019-05-11T05:57:31.538Z,124.07
2019-05-11T06:00:04.625Z,117.60
2019-05-11T06:02:37.937Z,136.62
2019-05-11T06:05:11.188Z,140.43
2019-05-11T06:07:44.627Z,135.82
2019-05-11T06:10:18.084Z,138.37
2019-05-11T06:12:50.392Z,134.67
2019-05-11T06:15:23.383Z,140.62
2019-05-11T06:18:01.042Z,128.87
2019-05-11T06:20:40.589Z,136.03
2019-05-11T06:23:09.020Z,144.22
2019-05-11T06:28:13.941Z,143.80
2019-05-11T06:30:46.736Z,139.20
2019-05-11T06:33:21.506Z,129.12
2019-05-11T06:35:54.765Z,137.20
2019-05-11T06:38:27.427Z,142.25
2019-05-11T06:41:03.026Z,134.15
2019-05-11T06:43:40.152Z,135.55
2019-05-11T06:46:13.264Z,126.67
2019-05-11T06:48:46.081Z,128.55
2019-05-11T06:51:18.683Z,142.95
2019-05-11T06:53:51.316Z,149.55
2019-05-11T06:56:25.525Z,144.93
2019-05-11T06:58:58.680Z,152.78
2019-05-11T07:01:31.876Z,134.72
2019-05-11T07:04:04.699Z,144.30
2019-05-11T07:06:41.526Z,141.85
2019-05-11T07:09:12.915Z,145.60
2019-05-11T07:11:45.471Z,160.10
2019-05-11T07:14:21.351Z,159.18
2019-05-11T07:16:53.369Z,135.78
2019-05-11T07:19:26.002Z,145.85
2019-05-11T07:22:01.654Z,148.53
2019-05-11T07:24:34.607Z,152.32
2019-05-11T07:27:07.595Z,141.22
2019-05-11T07:32:22.460Z,162.40
2019-05-11T07:34:48.570Z,153.85
2019-05-11T07:37:23.782Z,158.85
2019-05-11T07:39:54.615Z,159.25
2019-05-11T07:42:28.631Z,178.07
2019-05-11T07:45:03.628Z,151.07
2019-05-11T07:47:37.917Z,146.13
2019-05-11T07:50:15.348Z,153.38
2019-05-11T07:52:52.763Z,164.93
2019-05-11T07:55:27.990Z,148.90
2019-05-11T07:58:00.293Z,148.38
2019-05-11T08:00:36.354Z,155.78
2019-05-11T08:03:09.049Z,161.15
2019-05-11T08:05:41.899Z,147.22
2019-05-11T08:08:14.652Z,152.05
2019-05-11T08:10:48.317Z,160.72
2019-05-11T08:13:23.173Z,162.20
2019-05-11T08:15:57.817Z,158.55
2019-05-11T08:18:30.699Z,153.87
2019-05-11T08:26:11.266Z,138.77
2019-05-11T08:29:07.940Z,149.20
2019-05-11T08:31:39.751Z,149.95
2019-05-11T08:34:13.393Z,157.18
2019-05-11T08:36:47.983Z,157.20
2019-05-11T08:39:20.213Z,153.68
2019-05-11T08:41:52.713Z,153.65
2019-05-11T08:44:28.646Z,150.30
2019-05-11T08:47:01.556Z,144.30
2019-05-11T08:49:34.418Z,166.73
2019-05-11T08:54:40.148Z,169.22
2019-05-11T08:57:13.817Z,150.27
2019-05-11T08:59:48.462Z,149.25
2019-05-11T09:02:20.233Z,162.75
2019-05-11T09:04:52.755Z,156.25
2019-05-11T09:07:27.637Z,156.93
2019-05-11T09:10:19.247Z,155.40
2019-05-11T09:12:53.205Z,151.80
2019-05-11T09:15:40.239Z,153.85
2019-05-11T09:18:10.741Z,156.28
2019-05-11T09:20:44.255Z,165.28
2019-05-11T09:23:30.883Z,158.07
2019-05-11T09:25:50.664Z,154.57
2019-05-11T09:28:23.122Z,139.15
2019-05-11T09:30:57.779Z,140.35
2019-05-11T09:33:30.392Z,154.07
2019-05-11T09:36:03.042Z,151.22
2019-05-11T09:38:35.621Z,162.95
2019-05-11T09:41:12.044Z,163.60
2019-05-11T09:43:42.415Z,160.82
2019-05-11T09:46:15.347Z,142.32
2019-05-11T09:48:48.472Z,155.72
2019-05-11T09:51:22.583Z,147.47
2019-05-11T09:53:55.263Z,155.57
2019-05-11T09:56:28.874Z,153.27
2019-05-11T09:59:01.162Z,151.05
2019-05-11T10:01:34.212Z,152.02
2019-05-11T10:04:08.792Z,152.17
2019-05-11T10:06:41.510Z,153.05
2019-05-11T10:09:14.972Z,162.03
2019-05-11T10:11:48.716Z,154.00
2019-05-11T10:14:22.259Z,154.85
2019-05-11T10:16:55.443Z,155.45
2019-05-11T10:19:28.757Z,157.80
2019-05-11T10:22:01.777Z,163.22
2019-05-11T10:24:34.831Z,149.47
2019-05-11T10:27:12.214Z,162.12
2019-05-11T10:29:48.116Z,156.78
2019-05-11T10:32:19.771Z,163.43
2019-05-11T10:34:53.796Z,157.80
2019-05-11T10:37:28.303Z,167.37
2019-05-11T10:40:00.737Z,166.62
2019-05-11T10:42:33.545Z,165.68
2019-05-11T10:45:08.849Z,168.72
2019-05-11T10:47:42.191Z,154.50
2019-05-11T10:52:48.378Z,159.40
2019-05-11T10:55:20.932Z,143.43
2019-05-11T10:57:55.144Z,167.77
2019-05-11T11:00:29.481Z,169.17
2019-05-11T11:03:02.970Z,170.90
2019-05-11T11:05:38.251Z,163.25
2019-05-11T11:08:10.815Z,157.50
2019-05-11T11:10:43.747Z,166.55
2019-05-11T11:13:18.752Z,157.50
2019-05-11T11:15:51.268Z,167.87
2019-05-11T11:20:57.956Z,176.72
2019-05-11T11:23:31.494Z,181.02
2019-05-11T11:26:04.820Z,187.22
2019-05-11T11:28:38.493Z,164.72
2019-05-11T11:31:18.611Z,169.07
2019-05-11T11:33:51.749Z,164.45
2019-05-11T11:36:24.412Z,151.02
2019-05-11T11:38:58.340Z,133.82
2019-05-11T11:41:31.674Z,137.97
2019-05-11T11:44:04.771Z,124.45
2019-05-11T11:49:10.902Z,105.25
2019-05-11T11:54:15.263Z,141.50
2019-05-11T11:59:22.754Z,144.90
2019-05-11T12:01:58.154Z,164.32
2019-05-11T12:04:30.655Z,132.37
2019-05-11T12:07:04.052Z,112.30
2019-05-11T12:09:39.163Z,126.45
2019-05-11T12:12:12.328Z,132.72
2019-05-11T12:14:45.076Z,147.82
2019-05-11T12:17:18.607Z,134.07
2019-05-11T12:19:51.456Z,141.40
2019-05-11T12:22:27.889Z,136.90
2019-05-11T12:25:00.450Z,146.82
2019-05-11T12:27:38.084Z,140.30
2019-05-11T12:30:11.638Z,151.55
2019-05-11T12:32:48.527Z,143.32
2019-05-11T12:35:21.683Z,145.45
2019-05-11T12:37:55.031Z,158.20
2019-05-11T12:40:28.270Z,146.15
2019-05-11T12:43:01.832Z,146.02
2019-05-11T12:48:06.112Z,143.55
2019-05-11T12:50:39.553Z,143.25
2019-05-11T12:53:18.412Z,132.00
2019-05-11T12:55:50.147Z,129.42
2019-05-11T12:58:24.209Z,128.40
2019-05-11T13:00:58.558Z,117.22
2019-05-11T13:03:31.106Z,115.52
2019-05-11T13:06:03.636Z,133.37
2019-05-11T13:08:38.727Z,112.15
2019-05-11T13:11:10.689Z,106.27
2019-05-11T13:13:43.932Z,101.38
2019-05-11T13:16:18.291Z,111.10
2019-05-11T13:18:51.673Z,110.37
2019-05-11T13:21:25.432Z,96.72
2019-05-11T13:23:58.953Z,95.75
2019-05-11T13:26:38.016Z,96.75
2019-05-11T13:29:12.538Z,92.62
2019-05-11T13:31:48.582Z,81.92
2019-05-11T13:34:22.991Z,84.07
2019-05-11T13:36:57.494Z,60.40
2019-05-11T13:39:31.496Z,67.60
2019-05-11T13:42:04.754Z,67.20
2019-05-11T13:44:39.408Z,52.83
2019-05-11T13:47:13.550Z,60.75
2019-05-11T13:49:48.036Z,56.65
2019-05-11T13:52:21.058Z,65.55
2019-05-11T13:54:54.411Z,57.85
2019-05-11T13:57:28.602Z,55.20
2019-05-11T14:00:01.585Z,60.60
2019-05-11T14:02:37.742Z,54.48
2019-05-11T14:05:10.573Z,54.70
2019-05-11T14:07:43.921Z,54.48
2019-05-11T14:10:19.060Z,53.52
2019-05-11T14:13:01.901Z,58.17
2019-05-11T14:15:34.896Z,56.35
2019-05-11T14:23:14.224Z,57.67
2019-05-11T14:25:48.615Z,56.88
2019-05-11T14:28:22.935Z,65.67
2019-05-11T14:30:57.838Z,61.60
2019-05-11T14:33:31.396Z,57.05
2019-05-11T14:36:05.592Z,55.35
2019-05-11T14:38:38.718Z,54.67
2019-05-11T14:44:00.995Z,56.25
2019-05-11T14:46:38.450Z,58.28
2019-05-11T14:49:11.767Z,56.18
2019-05-11T14:51:48.389Z,66.97
2019-05-11T14:54:20.305Z,54.05
2019-05-11T14:56:54.486Z,59.08
2019-05-11T14:59:29.553Z,55.80
2019-05-11T15:02:04.355Z,57.20
2019-05-11T15:04:38.308Z,60.78
2019-05-11T15:07:11.155Z,57.62
2019-05-11T15:09:44.058Z,61.48
2019-05-11T15:14:52.343Z,61.90
2019-05-11T15:17:28.008Z,56.95
2019-05-11T15:19:59.917Z,56.85
2019-05-11T15:25:05.042Z,62.17
2019-05-11T15:27:39.442Z,58.33
2019-05-11T15:30:13.331Z,56.68
2019-05-11T15:32:48.653Z,59.50
2019-05-11T15:35:23.133Z,58.73
2019-05-11T15:38:00.377Z,57.70
2019-05-11T15:40:34.910Z,62.67
2019-05-11T15:43:08.714Z,56.48
2019-05-11T15:45:41.170Z,61.00
2019-05-11T15:48:18.466Z,53.45
2019-05-11T15:50:50.745Z,52.90
2019-05-11T15:53:24.141Z,53.68
2019-05-11T15:55:59.612Z,57.53
2019-05-11T15:58:31.548Z,52.58
2019-05-11T16:01:04.516Z,47.60
2019-05-11T16:06:09.485Z,46.48
2019-05-11T16:08:45.501Z,50.40
2019-05-11T16:11:18.167Z,49.25
2019-05-11T16:13:53.002Z,49.38
2019-05-11T16:16:29.939Z,53.58
2019-05-11T16:19:11.628Z,52.25
2019-05-11T16:21:38.131Z,53.75
2019-05-11T16:24:11.155Z,54.58
2019-05-11T16:29:15.790Z,54.67
2019-05-11T16:31:48.792Z,59.98
2019-05-11T16:34:21.900Z,58.60
2019-05-11T16:36:54.773Z,60.50
2019-05-11T16:42:00.128Z,66.28
2019-05-11T16:44:33.633Z,60.88
2019-05-11T16:47:07.863Z,64.17
2019-05-11T16:49:40.537Z,53.00
2019-05-11T16:52:12.974Z,55.03
2019-05-11T16:57:17.751Z,56.45
2019-05-11T16:59:52.490Z,50.98
2019-05-11T17:02:30.370Z,58.48
2019-05-11T17:05:01.274Z,56.75
2019-05-11T17:07:34.265Z,53.75
2019-05-11T17:10:09.098Z,49.88
2019-05-11T17:12:41.618Z,42.40
2019-05-11T17:15:20.683Z,52.83
2019-05-11T17:17:53.309Z,51.00
2019-05-11T17:22:59.262Z,43.08
2019-05-11T17:28:06.650Z,54.58
2019-05-11T17:30:38.615Z,52.00
2019-05-11T17:33:11.324Z,61.28
2019-05-11T17:35:45.271Z,54.23
2019-05-11T17:38:18.417Z,43.15
2019-05-11T17:40:51.220Z,46.25
2019-05-11T17:43:23.681Z,45.43
2019-05-11T17:45:58.388Z,50.40
2019-05-11T17:48:31.904Z,44.20
2019-05-11T17:51:18.357Z,43.68
2019-05-11T17:53:38.642Z,45.05
2019-05-11T17:58:43.235Z,40.63
2019-05-11T18:01:15.812Z,42.75
2019-05-11T18:03:48.409Z,45.03
2019-05-11T18:06:21.051Z,39.78
2019-05-11T18:08:53.635Z,37.60
2019-05-11T18:13:58.620Z,39.95
2019-05-11T18:16:31.578Z,35.75
2019-05-11T18:19:04.794Z,33.40
2019-05-11T18:21:38.726Z,42.38
2019-05-11T18:24:11.877Z,33.58
2019-05-11T18:26:44.759Z,43.20
2019-05-11T18:29:18.195Z,35.63
2019-05-11T18:31:51.130Z,33.40
2019-05-11T18:34:23.720Z,31.68
2019-05-11T18:36:57.827Z,35.95
2019-05-11T18:39:30.202Z,34.80
2019-05-11T18:42:02.834Z,32.93
2019-05-11T18:44:37.812Z,30.30
2019-05-11T18:47:09.585Z,31.95
2019-05-11T18:49:43.206Z,35.05
2019-05-11T18:52:18.956Z,34.18
2019-05-11T18:54:51.958Z,35.35
2019-05-11T18:57:24.738Z,33.98
2019-05-11T18:59:58.728Z,42.88
2019-05-11T19:02:31.773Z,33.08
2019-05-11T19:05:04.730Z,33.60
2019-05-11T19:10:10.397Z,48.52
2019-05-11T19:12:44.419Z,33.35
2019-05-11T19:15:18.692Z,37.95
2019-05-11T19:17:51.039Z,34.13
2019-05-11T19:20:23.758Z,37.63
2019-05-11T19:22:58.819Z,30.95
2019-05-11T19:25:30.713Z,35.95
2019-05-11T19:30:35.255Z,35.03
2019-05-11T19:35:41.796Z,33.18
2019-05-11T19:38:14.702Z,31.90
2019-05-11T19:40:48.446Z,36.68
2019-05-11T19:43:21.545Z,35.80
2019-05-11T19:45:54.791Z,41.33
2019-05-11T19:48:28.118Z,36.73
2019-05-11T19:51:07.588Z,36.55
2019-05-11T19:53:35.191Z,33.53
2019-05-11T19:56:08.422Z,38.25
2019-05-11T19:58:41.327Z,34.10
2019-05-11T20:01:13.544Z,34.05
2019-05-11T20:03:46.910Z,34.65
2019-05-11T20:06:19.514Z,42.95
2019-05-11T20:08:52.066Z,35.98
2019-05-11T20:11:24.747Z,39.98
2019-05-11T20:13:58.991Z,36.95
2019-05-11T20:16:31.549Z,39.38
2019-05-11T20:19:04.808Z,43.73
2019-05-11T20:21:38.161Z,38.35
2019-05-11T20:24:30.811Z,40.33
2019-05-11T20:27:03.658Z,38.13
2019-05-11T20:32:08.142Z,40.90
2019-05-11T20:34:40.940Z,41.60
2019-05-11T20:37:13.263Z,41.70
2019-05-11T20:39:48.008Z,39.05
2019-05-11T20:42:22.021Z,36.70
2019-05-11T20:44:54.514Z,47.05
2019-05-11T20:47:28.629Z,40.65
2019-05-11T20:50:00.865Z,40.45
2019-05-11T20:52:33.139Z,69.32
2019-05-11T20:55:08.564Z,48.23
2019-05-11T20:57:40.042Z,50.83
2019-05-11T21:00:14.417Z,44.00
2019-05-11T21:02:48.673Z,45.98
2019-05-11T21:05:22.625Z,45.65
2019-05-11T21:07:54.856Z,37.67
2019-05-11T21:10:28.060Z,39.70
2019-05-11T21:13:00.663Z,37.67
2019-05-11T21:15:33.606Z,42.85
2019-05-11T21:18:08.252Z,38.88
2019-05-11T21:20:42.692Z,41.63
2019-05-11T21:23:15.046Z,40.23
2019-05-11T21:25:47.707Z,40.88
2019-05-11T21:28:20.116Z,43.00
2019-05-11T21:30:53.230Z,37.88
2019-05-11T21:33:28.222Z,38.53
2019-05-11T21:36:00.870Z,41.63
2019-05-11T21:38:33.811Z,40.98
2019-05-11T21:43:56.030Z,38.08
2019-05-11T21:46:28.858Z,48.78
2019-05-11T21:49:01.958Z,39.42
2019-05-11T21:51:37.955Z,35.38
2019-05-11T21:54:30.005Z,35.65
2019-05-11T21:57:18.629Z,40.75
2019-05-11T21:59:51.335Z,39.38
2019-05-11T22:02:24.218Z,37.65
2019-05-11T22:04:58.634Z,40.40
2019-05-11T22:07:32.629Z,38.02
2019-05-11T22:16:02.985Z,38.70
2019-05-11T22:18:53.467Z,35.83
2019-05-11T22:21:44.471Z,37.28
2019-05-11T22:24:17.950Z,40.58
2019-05-11T22:26:50.623Z,36.80
2019-05-11T22:29:23.934Z,37.78
2019-05-11T22:32:15.223Z,35.20
2019-05-11T22:34:48.534Z,36.25
2019-05-11T22:40:10.704Z,42.50
2019-05-11T22:43:02.187Z,31.48
2019-05-11T22:45:52.705Z,34.58
2019-05-11T22:48:42.882Z,40.28
2019-05-11T22:51:18.279Z,38.98
2019-05-11T22:54:10.968Z,35.52
2019-05-11T22:56:42.782Z,37.08
2019-05-11T22:59:33.285Z,31.37
2019-05-11T23:02:07.702Z,36.55
2019-05-11T23:04:41.639Z,35.50
2019-05-11T23:07:14.194Z,39.63
2019-05-11T23:09:47.080Z,36.98
2019-05-11T23:12:19.638Z,33.80
2019-05-11T23:14:54.554Z,39.23
2019-05-11T23:17:27.945Z,42.10
2019-05-11T23:20:01.158Z,33.42
2019-05-11T23:22:50.684Z,37.45
2019-05-11T23:25:11.237Z,44.98
2019-05-11T23:27:43.757Z,37.20
2019-05-11T23:30:19.330Z,38.50
2019-05-11T23:32:50.551Z,36.23
2019-05-11T23:35:23.771Z,35.30
2019-05-11T23:40:31.988Z,30.27
2019-05-11T23:43:04.423Z,35.33
2019-05-11T23:45:38.245Z,31.25
2019-05-11T23:48:10.774Z,31.62
2019-05-11T23:50:43.773Z,40.00
2019-05-11T23:53:17.833Z,35.15
2019-05-11T23:55:50.810Z,36.70
